This is the latest recevied weather packets stored in our database for station/object ENBN. If no packets are shown the sender has not sent any weather packets the latest 10 day(s).
| Time | Temp. | Humidity | Pressure | Rain* | Wind** | Luminosity | Snow |
|---|---|---|---|---|---|---|---|
| 1788670988 | 11.67° C | 93% | 1009 hPa | - | - | - | - |
| 1788669186 | 11.67° C | 93% | 1009 hPa | - | - | - | - |
| 1788667387 | 11.67° C | 93% | 1009 hPa | - | - | - | - |
| 1788663786 | 11.67° C | 93% | 1009 hPa | - | - | - | - |
| 1788661986 | 11.67° C | 93% | 1009 hPa | - | - | - | - |
| 1788660187 | 11.67° C | 93% | 1008 hPa | - | - | - | - |
| 1788658386 | 11.67° C | 93% | 1008 hPa | - | - | - | - |
| 1788656586 | 11.67° C | 93% | 1008 hPa | - | - | - | - |
| 1788654786 | 12.78° C | 87% | 1008 hPa | - | - | - | - |
| 1788651187 | 11.67° C | 93% | 1008 hPa | - | - | - | - |
| 1788649386 | 12.78° C | 87% | 1008 hPa | - | - | - | - |
| 1788647586 | 12.78° C | 87% | 1007 hPa | - | - | - | - |
| 1788645788 | 12.78° C | 93% | 1007 hPa | - | - | - | - |
| 1788643986 | 12.78° C | 93% | 1007 hPa | - | - | - | - |
| 1788642187 | 11.67° C | 10% | - | - | - | - | - |
| 1788640386 | 10.56° C | 10% | - | - | - | - | - |
| 1788638586 | 10.56° C | 93% | 1006 hPa | - | - | - | - |
| 1788636786 | 11.67° C | 93% | 1006 hPa | - | - | - | - |
| 1788634986 | 11.67° C | 87% | 1005 hPa | - | - | - | - |
| 1788633187 | 12.78° C | 87% | 1005 hPa | - | - | - | - |
| 1788631387 | 13.89° C | 76% | 1005 hPa | - | - | - | - |
| 1788629588 | 15° C | 72% | 1004 hPa | - | - | - | - |
| 1788627803 | 15.56° C | 67% | 1004 hPa | - | - | - | - |
| 1788625987 | 15.56° C | 67% | 1004 hPa | - | - | - | - |
| 1788624187 | 15.56° C | 63% | 1003 hPa | - | - | - | - |
* Rain since midnight (hover to see other rain measurements)
** Current wind speed in m/s (hover to see current wind gust speed)